Time,TemperatureF,DewpointF,PressureIn,WindDirection,WindDirectionDegrees,WindSpeedMPH,WindSpeedGustMPH,Humidity,HourlyPrecipIn,Conditions,Clouds,dailyrainin,SoftwareType,DateUTC
2013-01-15 00:14:00,14.6,9.0,30.45,North,9,1.0,2.0,78,0.00,,,0.01,weatherlink.com 1.10,2013-01-15 06:14:00,
2013-01-15 00:29:00,14.1,9.0,30.45,North,9,3.0,3.0,79,0.00,,,0.01,weatherlink.com 1.10,2013-01-15 06:29:00,
2013-01-15 00:44:00,13.6,9.0,30.45,North,9,2.0,2.0,80,0.00,,,0.00,weatherlink.com 1.10,2013-01-15 06:44:00,
2013-01-15 00:59:00,13.5,9.0,30.45,North,9,2.0,3.0,81,0.00,,,0.00,weatherlink.com 1.10,2013-01-15 06:59:00,
2013-01-15 01:14:00,13.1,8.0,30.45,North,9,2.0,3.0,81,0.00,,,0.00,weatherlink.com 1.10,2013-01-15 07:14:00,
2013-01-15 01:29:00,13.2,8.0,30.45,NNE,15,2.0,3.0,81,0.00,,,0.00,weatherlink.com 1.10,2013-01-15 07:29:00,
2013-01-15 01:44:00,13.2,8.0,30.45,NNE,20,2.0,4.0,81,0.00,,,0.00,weatherlink.com 1.10,2013-01-15 07:44:00,
2013-01-15 01:59:00,13.0,9.0,30.45,NNE,19,1.0,3.0,82,0.00,,,0.00,weatherlink.com 1.10,2013-01-15 07:59:00,
2013-01-15 02:14:00,12.9,9.0,30.44,NNE,19,1.0,3.0,83,0.00,,,0.00,weatherlink.com 1.10,2013-01-15 08:14:00,
2013-01-15 02:29:00,13.0,9.0,30.43,NNE,21,2.0,3.0,83,0.00,,,0.00,weatherlink.com 1.10,2013-01-15 08:29:00,
2013-01-15 02:44:00,12.9,9.0,30.43,NNE,21,1.0,2.0,83,0.00,,,0.00,weatherlink.com 1.10,2013-01-15 08:44:00,
2013-01-15 02:59:00,12.7,9.0,30.44,NNE,21,0.0,1.0,84,0.00,,,0.00,weatherlink.com 1.10,2013-01-15 08:59:00,
2013-01-15 03:14:00,12.2,8.0,30.43,NNE,21,1.0,2.0,84,0.00,,,0.00,weatherlink.com 1.10,2013-01-15 09:14:00,
2013-01-15 03:29:00,11.4,8.0,30.43,NNE,21,0.0,1.0,85,0.00,,,0.00,weatherlink.com 1.10,2013-01-15 09:29:00,
2013-01-15 03:44:00,11.1,8.0,30.42,NNE,21,2.0,2.0,86,0.00,,,0.00,weatherlink.com 1.10,2013-01-15 09:44:00,
2013-01-15 03:59:00,11.2,8.0,30.42,NNE,21,0.0,2.0,87,0.00,,,0.00,weatherlink.com 1.10,2013-01-15 09:59:00,
2013-01-15 04:14:00,11.2,8.0,30.41,NNE,21,2.0,2.0,87,0.00,,,0.00,weatherlink.com 1.10,2013-01-15 10:14:00,
2013-01-15 04:29:00,10.9,8.0,30.41,NNE,21,1.0,3.0,87,0.00,,,0.00,weatherlink.com 1.10,2013-01-15 10:29:00,
2013-01-15 04:44:00,11.4,8.0,30.41,NNE,21,0.0,3.0,87,0.00,,,0.00,weatherlink.com 1.10,2013-01-15 10:44:00,
2013-01-15 04:59:00,11.6,8.0,30.41,NNE,21,2.0,3.0,86,0.00,,,0.00,weatherlink.com 1.10,2013-01-15 10:59:00,
2013-01-15 05:14:00,11.6,8.0,30.40,NNE,21,3.0,3.0,86,0.00,,,0.00,weatherlink.com 1.10,2013-01-15 11:14:00,
2013-01-15 05:29:00,11.6,9.0,30.41,NNE,20,2.0,4.0,87,0.00,,,0.00,weatherlink.com 1.10,2013-01-15 11:29:00,
2013-01-15 05:44:00,11.9,9.0,30.42,NNE,20,2.0,3.0,86,0.00,,,0.00,weatherlink.com 1.10,2013-01-15 11:44:00,
2013-01-15 05:59:00,11.9,9.0,30.42,NNE,20,0.0,2.0,86,0.00,,,0.00,weatherlink.com 1.10,2013-01-15 11:59:00,
2013-01-15 06:14:00,11.7,9.0,30.42,NNE,20,1.0,3.0,87,0.00,,,0.00,weatherlink.com 1.10,2013-01-15 12:14:00,
2013-01-15 06:29:00,11.7,9.0,30.43,NNE,20,1.0,3.0,87,0.00,,,0.00,weatherlink.com 1.10,2013-01-15 12:29:00,
2013-01-15 06:44:00,11.7,9.0,30.43,NNE,20,0.0,0.0,87,0.00,,,0.00,weatherlink.com 1.10,2013-01-15 12:44:00,
2013-01-15 06:59:00,11.2,8.0,30.43,NNE,20,0.0,1.0,87,0.00,,,0.00,weatherlink.com 1.10,2013-01-15 12:59:00,
2013-01-15 07:14:00,11.0,8.0,30.43,NNE,20,0.0,1.0,87,0.00,,,0.00,weatherlink.com 1.10,2013-01-15 13:14:00,
2013-01-15 07:29:00,11.0,8.0,30.44,NNE,20,1.0,2.0,88,0.00,,,0.00,weatherlink.com 1.10,2013-01-15 13:29:00,
2013-01-15 07:44:00,11.0,8.0,30.43,NNE,20,2.0,4.0,88,0.00,,,0.00,weatherlink.com 1.10,2013-01-15 13:44:00,
2013-01-15 07:59:00,11.5,9.0,30.43,NNE,20,3.0,4.0,89,0.00,,,0.00,weatherlink.com 1.10,2013-01-15 13:59:00,
2013-01-15 08:14:00,12.9,10.0,30.43,NNE,25,6.0,6.0,89,0.00,,,0.00,weatherlink.com 1.10,2013-01-15 14:14:00,
2013-01-15 08:30:00,14.7,12.0,30.42,ENE,63,4.0,5.0,89,0.00,,,0.00,weatherlink.com 1.10,2013-01-15 14:30:00,
2013-01-15 08:45:00,15.5,12.0,30.41,NNE,30,2.0,7.0,87,0.00,,,0.00,weatherlink.com 1.10,2013-01-15 14:45:00,
2013-01-15 09:00:00,15.9,13.0,30.40,NNE,24,6.0,7.0,88,0.00,,,0.00,weatherlink.com 1.10,2013-01-15 15:00:00,
2013-01-15 09:15:00,17.0,14.0,30.41,NE,45,4.0,8.0,87,0.00,,,0.00,weatherlink.com 1.10,2013-01-15 15:15:00,
2013-01-15 09:30:00,17.5,14.0,30.41,NE,54,5.0,8.0,86,0.00,,,0.00,weatherlink.com 1.10,2013-01-15 15:30:00,
2013-01-15 09:45:00,18.3,15.0,30.40,ENE,65,8.0,11.0,86,0.00,,,0.00,weatherlink.com 1.10,2013-01-15 15:45:00,
2013-01-15 10:00:00,19.2,16.0,30.40,NE,53,7.0,10.0,86,0.00,,,0.00,weatherlink.com 1.10,2013-01-15 16:00:00,
2013-01-15 10:15:00,20.6,16.0,30.40,ENE,73,2.0,9.0,83,0.00,,,0.00,weatherlink.com 1.10,2013-01-15 16:15:00,
2013-01-15 10:30:00,21.6,16.0,30.41,NE,46,5.0,9.0,80,0.00,,,0.00,weatherlink.com 1.10,2013-01-15 16:30:00,
2013-01-15 10:45:00,22.0,16.0,30.42,ENE,72,2.0,8.0,79,0.00,,,0.00,weatherlink.com 1.10,2013-01-15 16:45:00,
2013-01-15 11:00:00,22.2,16.0,30.42,ESE,102,2.0,6.0,77,0.00,,,0.00,weatherlink.com 1.10,2013-01-15 17:00:00,
2013-01-15 11:15:00,22.6,17.0,30.41,SE,142,3.0,6.0,78,0.00,,,0.00,weatherlink.com 1.10,2013-01-15 17:15:00,
2013-01-15 11:30:00,22.6,15.0,30.40,SSE,166,0.0,5.0,74,0.00,,,0.00,weatherlink.com 1.10,2013-01-15 17:30:00,
2013-01-15 11:45:00,22.9,16.0,30.39,ESE,120,1.0,5.0,74,0.00,,,0.00,weatherlink.com 1.10,2013-01-15 17:45:00,
2013-01-15 12:00:00,23.6,16.0,30.38,NE,47,4.0,6.0,72,0.00,,,0.00,weatherlink.com 1.10,2013-01-15 18:00:00,
2013-01-15 12:15:00,24.5,16.0,30.36,ENE,69,3.0,7.0,70,0.00,,,0.00,weatherlink.com 1.10,2013-01-15 18:15:00,
2013-01-15 12:30:00,24.6,17.0,30.35,NNW,346,2.0,7.0,72,0.00,,,0.00,weatherlink.com 1.10,2013-01-15 18:30:00,
2013-01-15 12:45:00,25.3,17.0,30.34,NNE,17,3.0,6.0,72,0.00,,,0.00,weatherlink.com 1.10,2013-01-15 18:45:00,
2013-01-15 13:00:00,25.4,16.0,30.34,ENE,59,0.0,8.0,67,0.00,,,0.00,weatherlink.com 1.10,2013-01-15 19:00:00,
2013-01-15 13:15:00,25.8,16.0,30.34,NE,44,2.0,6.0,67,0.00,,,0.00,weatherlink.com 1.10,2013-01-15 19:15:00,
2013-01-15 13:30:00,26.4,18.0,30.33,NE,48,4.0,6.0,70,0.00,,,0.00,weatherlink.com 1.10,2013-01-15 19:30:00,
2013-01-15 13:45:00,26.7,16.0,30.33,East,95,2.0,8.0,65,0.00,,,0.00,weatherlink.com 1.10,2013-01-15 19:45:00,
2013-01-15 14:00:00,26.8,16.0,30.33,NE,46,1.0,8.0,63,0.00,,,0.00,weatherlink.com 1.10,2013-01-15 20:00:00,
2013-01-15 14:16:00,27.3,17.0,30.33,East,90,5.0,7.0,64,0.00,,,0.00,weatherlink.com 1.10,2013-01-15 20:16:00,
2013-01-15 14:31:00,27.5,15.0,30.32,ENE,60,3.0,7.0,60,0.00,,,0.00,weatherlink.com 1.10,2013-01-15 20:31:00,
2013-01-15 14:46:00,27.9,15.0,30.32,NE,53,5.0,6.0,58,0.00,,,0.00,weatherlink.com 1.10,2013-01-15 20:46:00,
2013-01-15 15:01:00,28.2,18.0,30.32,NE,36,4.0,7.0,66,0.00,,,0.00,weatherlink.com 1.10,2013-01-15 21:01:00,
2013-01-15 15:16:00,28.1,18.0,30.32,NNE,30,4.0,8.0,67,0.00,,,0.00,weatherlink.com 1.10,2013-01-15 21:16:00,
2013-01-15 15:31:00,27.8,19.0,30.31,NNE,15,4.0,8.0,70,0.00,,,0.00,weatherlink.com 1.10,2013-01-15 21:31:00,
2013-01-15 15:46:00,27.4,19.0,30.30,NNW,338,6.0,8.0,72,0.00,,,0.00,weatherlink.com 1.10,2013-01-15 21:46:00,
2013-01-15 16:01:00,27.1,19.0,30.30,North,355,4.0,10.0,72,0.00,,,0.00,weatherlink.com 1.10,2013-01-15 22:01:00,
2013-01-15 16:16:00,26.7,19.0,30.30,NNE,26,4.0,9.0,74,0.00,,,0.00,weatherlink.com 1.10,2013-01-15 22:16:00,
2013-01-15 16:31:00,26.4,19.0,30.30,NNE,23,5.0,9.0,74,0.00,,,0.00,weatherlink.com 1.10,2013-01-15 22:31:00,
2013-01-15 16:46:00,25.9,19.0,30.29,NNE,22,5.0,9.0,75,0.00,,,0.00,weatherlink.com 1.10,2013-01-15 22:46:00,
2013-01-15 17:01:00,25.5,19.0,30.28,North,360,5.0,7.0,76,0.00,,,0.00,weatherlink.com 1.10,2013-01-15 23:01:00,
2013-01-15 17:16:00,25.2,19.0,30.28,NNE,20,4.0,9.0,76,0.00,,,0.00,weatherlink.com 1.10,2013-01-15 23:16:00,
2013-01-15 17:31:00,25.0,19.0,30.28,North,11,3.0,6.0,77,0.00,,,0.00,weatherlink.com 1.10,2013-01-15 23:31:00,
2013-01-15 17:46:00,24.8,19.0,30.28,NNE,33,3.0,7.0,77,0.00,,,0.00,weatherlink.com 1.10,2013-01-15 23:46:00,
2013-01-15 18:01:00,24.7,19.0,30.28,NNW,337,6.0,6.0,78,0.00,,,0.00,weatherlink.com 1.10,2013-01-16 00:01:00,
2013-01-15 18:16:00,24.5,18.0,30.28,NNW,342,3.0,7.0,76,0.00,,,0.00,weatherlink.com 1.10,2013-01-16 00:16:00,
2013-01-15 18:31:00,24.4,18.0,30.28,NNW,346,2.0,8.0,75,0.00,,,0.00,weatherlink.com 1.10,2013-01-16 00:31:00,
2013-01-15 18:46:00,24.3,17.0,30.27,NNE,30,2.0,5.0,75,0.00,,,0.00,weatherlink.com 1.10,2013-01-16 00:46:00,
2013-01-15 19:01:00,24.3,17.0,30.26,NNE,20,2.0,5.0,74,0.00,,,0.00,weatherlink.com 1.10,2013-01-16 01:01:00,
2013-01-15 19:16:00,24.3,17.0,30.26,NNE,30,2.0,3.0,74,0.00,,,0.00,weatherlink.com 1.10,2013-01-16 01:16:00,
2013-01-15 19:31:00,24.2,17.0,30.26,North,355,2.0,3.0,73,0.00,,,0.00,weatherlink.com 1.10,2013-01-16 01:31:00,
2013-01-15 19:46:00,24.2,17.0,30.26,North,10,2.0,3.0,73,0.00,,,0.00,weatherlink.com 1.10,2013-01-16 01:46:00,
2013-01-15 20:01:00,24.0,17.0,30.26,North,10,0.0,3.0,74,0.00,,,0.00,weatherlink.com 1.10,2013-01-16 02:01:00,
2013-01-15 20:16:00,23.6,16.0,30.27,North,10,1.0,1.0,74,0.00,,,0.00,weatherlink.com 1.10,2013-01-16 02:16:00,
2013-01-15 20:31:00,23.6,17.0,30.26,North,10,0.0,0.0,76,0.00,,,0.00,weatherlink.com 1.10,2013-01-16 02:31:00,
2013-01-15 20:46:00,23.6,17.0,30.24,North,10,0.0,0.0,75,0.00,,,0.00,weatherlink.com 1.10,2013-01-16 02:46:00,
2013-01-15 21:01:00,23.6,17.0,30.24,North,10,0.0,0.0,75,0.00,,,0.00,weatherlink.com 1.10,2013-01-16 03:01:00,
2013-01-15 21:16:00,23.2,16.0,30.24,North,10,0.0,0.0,75,0.00,,,0.00,weatherlink.com 1.10,2013-01-16 03:16:00,
2013-01-15 21:31:00,22.5,16.0,30.23,North,10,0.0,0.0,76,0.00,,,0.00,weatherlink.com 1.10,2013-01-16 03:31:00,
2013-01-15 21:46:00,21.7,16.0,30.23,North,10,1.0,2.0,78,0.00,,,0.00,weatherlink.com 1.10,2013-01-16 03:46:00,
2013-01-15 22:01:00,21.0,15.0,30.23,North,10,1.0,1.0,79,0.00,,,0.00,weatherlink.com 1.10,2013-01-16 04:01:00,
2013-01-15 22:16:00,20.5,16.0,30.23,North,10,0.0,2.0,81,0.00,,,0.00,weatherlink.com 1.10,2013-01-16 04:16:00,
2013-01-15 22:31:00,20.1,15.0,30.22,North,10,0.0,2.0,82,0.00,,,0.00,weatherlink.com 1.10,2013-01-16 04:31:00,
2013-01-15 22:46:00,19.5,15.0,30.21,North,10,0.0,1.0,82,0.00,,,0.00,weatherlink.com 1.10,2013-01-16 04:46:00,
2013-01-15 23:01:00,19.0,15.0,30.21,North,10,0.0,1.0,83,0.00,,,0.00,weatherlink.com 1.10,2013-01-16 05:01:00,
2013-01-15 23:16:00,18.9,15.0,30.21,North,10,0.0,1.0,84,0.00,,,0.00,weatherlink.com 1.10,2013-01-16 05:16:00,
2013-01-15 23:31:00,18.4,15.0,30.22,North,10,0.0,1.0,85,0.00,,,0.00,weatherlink.com 1.10,2013-01-16 05:31:00,
2013-01-15 23:46:00,18.1,14.0,30.21,North,10,0.0,2.0,85,0.00,,,0.00,weatherlink.com 1.10,2013-01-16 05:46:00,